logo
Search for airport 
image banner adimage banner adimage banner ad
image banner ad

MMELV - El Viejo

Located in Villa Hidalgo, Mexico

ICAO - , IATA -

Data provided by Airmate  

General information

Coordinates: N27°50'4" W100°16'48"
Elevation is 787 feet MSL.
Magnetic variation is 4° East
View others Airports in Coahuila

Operational data

Special qualification required
Current time UTC:
Current local time:
Weather at : - ( 0 km )
METAR: RCFN 180717Z 04009KT 350V100 5000 VCTS -SHRA FEW010 FEW015CB BKN025 BKN040 25/22 Q1010 NOSIG RMK TS W MOV NE A2983
View NOTAMs / SUP AIP / TFR affecting this airport [VIEW]
Communications frequencies: [VIEW]

Runways:

RWY identifierQFULength (ft)Width (ft)SurfaceLDA (ft)
0112°303544DIRT
19192°303544DIRT

Airport contact information

Address: Villa Hidalgo Mexico

Satellite view of MMELV